createdAt,value
2019-01-24T00:00:05.544Z,50.73
2019-01-24T00:02:32.397Z,53.27
2019-01-24T00:04:59.217Z,45.93
2019-01-24T00:07:26.382Z,46.23
2019-01-24T00:09:53.206Z,57.43
2019-01-24T00:12:20.164Z,50.73
2019-01-24T00:14:47.058Z,49.63
2019-01-24T00:17:13.963Z,49.10
2019-01-24T00:19:40.845Z,52.57
2019-01-24T00:22:07.688Z,49.10
2019-01-24T00:24:34.525Z,45.03
2019-01-24T00:27:01.431Z,49.83
2019-01-24T00:29:28.393Z,42.20
2019-01-24T00:31:55.516Z,43.90
2019-01-24T00:34:23.394Z,47.03
2019-01-24T00:36:50.601Z,49.33
2019-01-24T00:39:17.478Z,34.33
2019-01-24T00:41:44.376Z,45.83
2019-01-24T00:44:11.316Z,46.07
2019-01-24T00:46:38.263Z,60.97
2019-01-24T00:49:05.242Z,45.60
2019-01-24T00:51:32.273Z,45.07
2019-01-24T00:53:59.171Z,52.27
2019-01-24T00:56:26.164Z,54.60
2019-01-24T00:58:53.293Z,43.67
2019-01-24T01:01:20.140Z,57.40
2019-01-24T01:03:46.988Z,50.27
2019-01-24T01:06:15.039Z,49.20
2019-01-24T01:08:41.900Z,46.87
2019-01-24T01:11:08.798Z,52.93
2019-01-24T01:13:35.839Z,52.13
2019-01-24T01:16:02.925Z,56.80
2019-01-24T01:18:29.752Z,47.83
2019-01-24T01:20:56.604Z,50.43
2019-01-24T01:23:23.551Z,43.37
2019-01-24T01:25:50.380Z,47.30
2019-01-24T01:28:17.235Z,58.67
2019-01-24T01:30:44.174Z,44.73
2019-01-24T01:33:11.144Z,54.43
2019-01-24T01:35:38.217Z,51.27
2019-01-24T01:38:05.631Z,56.23
2019-01-24T01:40:32.555Z,57.43
2019-01-24T01:42:59.761Z,52.37
2019-01-24T01:45:26.712Z,58.40
2019-01-24T01:47:53.591Z,50.00
2019-01-24T01:50:21.320Z,52.00
2019-01-24T01:52:48.246Z,50.93
2019-01-24T01:55:15.183Z,49.43
2019-01-24T01:57:42.135Z,50.13
2019-01-24T02:00:11.432Z,48.33
2019-01-24T02:02:38.326Z,50.60
2019-01-24T02:05:05.743Z,56.43
2019-01-24T02:07:32.684Z,47.03
2019-01-24T02:09:59.563Z,48.37
2019-01-24T02:12:26.455Z,45.60
2019-01-24T02:14:53.404Z,46.07
2019-01-24T02:17:20.252Z,50.13
2019-01-24T02:19:47.134Z,54.07
2019-01-24T02:22:13.981Z,47.17
2019-01-24T02:24:40.911Z,49.90
2019-01-24T02:27:07.855Z,54.27
2019-01-24T02:29:34.712Z,54.03
2019-01-24T02:32:01.676Z,58.67
2019-01-24T02:34:28.767Z,51.67
2019-01-24T02:36:55.675Z,50.13
2019-01-24T02:39:22.501Z,34.40
2019-01-24T02:41:49.607Z,45.60
2019-01-24T02:44:16.653Z,47.60
2019-01-24T02:46:43.500Z,35.00
2019-01-24T02:49:10.494Z,50.40
2019-01-24T02:51:37.434Z,45.53
2019-01-24T02:54:04.260Z,46.20
2019-01-24T02:56:31.202Z,43.00
2019-01-24T02:58:58.085Z,37.47
2019-01-24T03:01:25.191Z,46.40
2019-01-24T03:03:52.564Z,55.30
2019-01-24T03:06:19.513Z,51.50
2019-01-24T03:08:46.465Z,52.50
2019-01-24T03:11:13.335Z,46.83
2019-01-24T03:13:40.197Z,54.63
2019-01-24T03:16:07.119Z,49.00
2019-01-24T03:18:34.087Z,50.17
2019-01-24T03:21:00.859Z,52.50
2019-01-24T03:23:27.719Z,47.60
2019-01-24T03:25:54.711Z,51.83
2019-01-24T03:28:21.537Z,42.43
2019-01-24T03:30:48.365Z,45.70
2019-01-24T03:33:15.246Z,53.20
2019-01-24T03:35:42.286Z,56.97
2019-01-24T03:38:09.124Z,43.17
2019-01-24T03:40:36.200Z,46.67
2019-01-24T03:43:03.170Z,53.13
2019-01-24T03:45:30.003Z,47.70
2019-01-24T03:47:56.883Z,52.63
2019-01-24T03:50:23.735Z,48.70
2019-01-24T03:52:50.677Z,46.43
2019-01-24T03:55:18.339Z,40.87
2019-01-24T03:57:45.371Z,61.67
2019-01-24T04:00:13.429Z,58.67
2019-01-24T04:02:40.353Z,54.63
2019-01-24T04:05:11.788Z,51.20
2019-01-24T04:07:36.057Z,53.50
2019-01-24T04:10:04.264Z,49.57
2019-01-24T04:12:31.137Z,50.23
2019-01-24T04:14:57.980Z,49.67
2019-01-24T04:17:24.861Z,53.30
2019-01-24T04:19:51.688Z,56.30
2019-01-24T04:22:18.556Z,53.53
2019-01-24T04:24:45.426Z,56.00
2019-01-24T04:27:12.357Z,51.90
2019-01-24T04:29:39.283Z,57.17
2019-01-24T04:32:06.406Z,54.10
2019-01-24T04:34:33.383Z,59.67
2019-01-24T04:37:00.321Z,42.70
2019-01-24T04:39:29.718Z,37.90
2019-01-24T04:41:56.462Z,57.50
2019-01-24T04:44:23.320Z,54.50
2019-01-24T04:46:50.316Z,51.60
2019-01-24T04:49:17.165Z,56.37
2019-01-24T04:51:44.036Z,58.40
2019-01-24T04:54:10.879Z,56.57
2019-01-24T04:56:37.754Z,48.20
2019-01-24T04:59:04.668Z,57.33
2019-01-24T05:01:31.592Z,61.60
2019-01-24T05:03:58.528Z,56.20
2019-01-24T05:06:25.372Z,50.23
2019-01-24T05:08:52.283Z,44.80
2019-01-24T05:11:19.156Z,57.53
2019-01-24T05:13:46.124Z,52.07
2019-01-24T05:16:13.309Z,37.90
2019-01-24T05:18:40.135Z,52.20
2019-01-24T05:21:06.991Z,57.20
2019-01-24T05:23:33.862Z,60.57
2019-01-24T05:26:00.712Z,55.90
2019-01-24T05:28:27.527Z,45.53
2019-01-24T05:30:54.571Z,48.13
2019-01-24T05:33:22.417Z,46.13
2019-01-24T05:35:49.275Z,52.17
2019-01-24T05:38:16.141Z,52.87
2019-01-24T05:40:43.151Z,50.47
2019-01-24T05:43:10.009Z,44.80
2019-01-24T05:45:39.575Z,42.33
2019-01-24T05:48:06.572Z,55.53
2019-01-24T05:50:33.451Z,53.70
2019-01-24T05:53:00.432Z,39.60
2019-01-24T05:55:27.284Z,53.67
2019-01-24T05:57:54.174Z,57.93
2019-01-24T06:00:30.492Z,52.33
2019-01-24T06:02:57.347Z,49.70
2019-01-24T06:05:24.219Z,57.27
2019-01-24T06:07:51.317Z,48.73
2019-01-24T06:10:18.177Z,45.70
2019-01-24T06:12:45.107Z,42.37
2019-01-24T06:15:12.608Z,49.70
2019-01-24T06:17:39.552Z,44.37
2019-01-24T06:20:06.598Z,33.90
2019-01-24T06:22:33.443Z,51.80
2019-01-24T06:25:00.306Z,43.27
2019-01-24T06:27:27.217Z,50.63
2019-01-24T06:29:54.087Z,45.07
2019-01-24T06:32:20.961Z,42.87
2019-01-24T06:34:47.886Z,42.87
2019-01-24T06:37:14.737Z,49.43
2019-01-24T06:39:41.602Z,49.03
2019-01-24T06:42:08.466Z,52.50
2019-01-24T06:44:35.565Z,46.23
2019-01-24T06:47:02.406Z,36.80
2019-01-24T06:49:29.346Z,34.57
2019-01-24T06:51:56.212Z,37.07
2019-01-24T06:54:23.023Z,45.63
2019-01-24T06:56:49.980Z,45.60
2019-01-24T06:59:16.907Z,47.10
2019-01-24T07:01:43.760Z,43.27
2019-01-24T07:04:10.672Z,48.33
2019-01-24T07:06:37.548Z,46.67
2019-01-24T07:09:05.741Z,45.87
2019-01-24T07:11:32.696Z,46.13
2019-01-24T07:13:59.840Z,49.73
2019-01-24T07:16:27.577Z,37.10
2019-01-24T07:18:54.424Z,41.50
2019-01-24T07:21:21.271Z,33.90
2019-01-24T07:23:48.131Z,47.17
2019-01-24T07:26:15.044Z,41.20
2019-01-24T07:28:41.979Z,45.93
2019-01-24T07:31:08.871Z,33.80
2019-01-24T07:33:35.860Z,42.70
2019-01-24T07:36:02.913Z,42.40
2019-01-24T07:38:29.742Z,35.97
2019-01-24T07:40:56.596Z,33.57
2019-01-24T07:43:23.672Z,42.13
2019-01-24T07:45:50.504Z,46.00
2019-01-24T07:48:17.335Z,35.87
2019-01-24T07:50:44.187Z,26.57
2019-01-24T07:53:11.036Z,41.50
2019-01-24T07:55:37.867Z,49.37
2019-01-24T07:58:05.267Z,30.03
2019-01-24T08:00:32.145Z,41.23
2019-01-24T08:02:59.028Z,40.50
2019-01-24T08:05:26.174Z,42.70
2019-01-24T08:07:53.203Z,31.00
2019-01-24T08:10:20.144Z,33.47
2019-01-24T08:12:47.210Z,37.87
2019-01-24T08:15:15.072Z,44.50
2019-01-24T08:17:42.203Z,53.17
2019-01-24T08:20:11.032Z,60.07
2019-01-24T08:22:38.104Z,58.47
2019-01-24T08:25:13.206Z,29.70
2019-01-24T08:27:40.574Z,43.67
2019-01-24T08:30:12.280Z,36.90
2019-01-24T08:32:39.403Z,41.33
2019-01-24T08:35:06.560Z,49.60
2019-01-24T08:37:33.756Z,35.20
2019-01-24T08:40:00.697Z,31.03
2019-01-24T08:42:27.608Z,47.83
2019-01-24T08:44:54.735Z,52.73
2019-01-24T08:47:21.775Z,47.07
2019-01-24T08:49:48.741Z,75.07
2019-01-24T08:52:15.600Z,46.97
2019-01-24T08:54:42.744Z,42.80
2019-01-24T08:57:09.680Z,44.03
2019-01-24T08:59:36.515Z,43.23
2019-01-24T09:02:03.479Z,50.00
2019-01-24T09:04:30.496Z,27.43
2019-01-24T09:06:57.356Z,43.60
2019-01-24T09:09:24.245Z,40.93
2019-01-24T09:11:51.573Z,40.07
2019-01-24T09:14:18.408Z,53.40
2019-01-24T09:16:45.299Z,40.03
2019-01-24T09:19:12.173Z,36.83
2019-01-24T09:21:39.057Z,40.17
2019-01-24T09:24:05.957Z,42.07
2019-01-24T09:26:32.841Z,43.80
2019-01-24T09:28:59.664Z,37.00
2019-01-24T09:31:26.712Z,32.83
2019-01-24T09:33:53.580Z,40.97
2019-01-24T09:36:20.441Z,39.57
2019-01-24T09:38:47.297Z,18.73
2019-01-24T09:41:14.192Z,41.83
2019-01-24T09:43:41.011Z,24.97
2019-01-24T09:46:07.842Z,39.37
2019-01-24T09:48:34.772Z,47.63
2019-01-24T09:51:01.758Z,40.57
2019-01-24T09:53:28.896Z,29.77
2019-01-24T09:55:55.924Z,43.83
2019-01-24T09:58:22.852Z,43.40
2019-01-24T10:00:49.675Z,43.73
2019-01-24T10:03:16.556Z,51.67
2019-01-24T10:05:43.375Z,38.27
2019-01-24T10:08:10.234Z,42.20
2019-01-24T10:10:37.179Z,40.93
2019-01-24T10:13:04.107Z,42.70
2019-01-24T10:15:30.939Z,39.23
2019-01-24T10:17:57.849Z,41.40
2019-01-24T10:20:25.105Z,39.70
2019-01-24T10:22:51.943Z,39.73
2019-01-24T10:25:20.054Z,41.50
2019-01-24T10:27:46.927Z,45.40
2019-01-24T10:30:14.689Z,38.47
2019-01-24T10:32:41.682Z,41.77
2019-01-24T10:35:08.700Z,35.30
2019-01-24T10:37:36.790Z,44.27
2019-01-24T10:40:04.688Z,41.90
2019-01-24T10:42:31.515Z,36.37
2019-01-24T10:44:58.358Z,42.30
2019-01-24T10:47:26.910Z,45.07
2019-01-24T10:49:53.824Z,43.53
2019-01-24T10:52:20.680Z,38.50
2019-01-24T10:54:47.730Z,39.77
2019-01-24T10:57:14.679Z,42.67
2019-01-24T10:59:41.615Z,38.50
2019-01-24T11:02:09.316Z,47.27
2019-01-24T11:04:36.159Z,41.83
2019-01-24T11:07:03.264Z,47.77
2019-01-24T11:09:30.165Z,29.90
2019-01-24T11:11:57.024Z,52.80
2019-01-24T11:14:23.863Z,40.33
2019-01-24T11:16:50.776Z,53.80
2019-01-24T11:19:17.713Z,47.43
2019-01-24T11:21:44.575Z,52.20
2019-01-24T11:24:11.702Z,50.27
2019-01-24T11:26:38.563Z,47.30
2019-01-24T11:29:05.575Z,53.87
2019-01-24T11:31:32.477Z,44.90
2019-01-24T11:33:59.467Z,51.83
2019-01-24T11:36:26.291Z,44.67
2019-01-24T11:38:53.252Z,59.33
2019-01-24T11:41:20.120Z,58.47
2019-01-24T11:43:47.219Z,53.60
2019-01-24T11:46:14.121Z,51.90
2019-01-24T11:48:40.947Z,51.93
2019-01-24T11:51:07.795Z,57.40
2019-01-24T11:53:35.509Z,47.83
2019-01-24T11:56:02.455Z,53.97
2019-01-24T11:58:29.330Z,59.53
2019-01-24T12:00:56.676Z,62.87
2019-01-24T12:03:23.565Z,58.83
2019-01-24T12:05:50.653Z,63.97
2019-01-24T12:08:17.781Z,75.07
2019-01-24T12:10:44.884Z,70.27
2019-01-24T12:13:11.777Z,59.27
2019-01-24T12:15:38.747Z,71.53
2019-01-24T12:18:05.778Z,60.10
2019-01-24T12:20:32.711Z,71.70
2019-01-24T12:22:59.733Z,82.17
2019-01-24T12:25:26.581Z,68.87
2019-01-24T12:27:53.406Z,51.73
2019-01-24T12:30:24.495Z,63.80
2019-01-24T12:32:51.422Z,68.03
2019-01-24T12:35:18.312Z,51.03
2019-01-24T12:37:45.182Z,71.83
2019-01-24T12:40:12.126Z,64.37
2019-01-24T12:42:38.924Z,69.87
2019-01-24T12:45:07.376Z,57.83
2019-01-24T12:47:34.047Z,59.43
2019-01-24T12:50:00.753Z,69.30
2019-01-24T12:52:27.649Z,56.87
2019-01-24T12:54:56.483Z,69.20
2019-01-24T12:57:23.234Z,57.20
2019-01-24T12:59:49.877Z,65.87
2019-01-24T13:02:16.452Z,49.30
2019-01-24T13:04:43.097Z,47.90
2019-01-24T13:07:09.768Z,48.43
2019-01-24T13:09:36.402Z,62.70
2019-01-24T13:12:03.411Z,39.07
2019-01-24T13:14:30.034Z,49.37
2019-01-24T13:16:56.741Z,49.20
2019-01-24T13:19:23.358Z,59.07
2019-01-24T13:21:51.060Z,53.60
2019-01-24T13:24:17.673Z,64.73
2019-01-24T13:26:44.267Z,65.33
2019-01-24T13:29:10.908Z,55.90
2019-01-24T13:31:37.496Z,58.33
2019-01-24T13:34:04.079Z,58.53
2019-01-24T13:36:31.071Z,51.10
2019-01-24T13:38:57.743Z,53.40
2019-01-24T13:41:24.339Z,53.20
2019-01-24T13:43:51.015Z,59.70
2019-01-24T13:46:17.892Z,57.13
2019-01-24T13:48:44.471Z,54.37
2019-01-24T13:51:11.120Z,52.97
2019-01-24T13:53:38.174Z,56.27
2019-01-24T13:56:05.133Z,55.00
2019-01-24T13:58:31.915Z,57.63
2019-01-24T14:00:58.948Z,53.10
2019-01-24T14:03:29.696Z,47.57
2019-01-24T14:05:56.337Z,59.50
2019-01-24T14:08:23.073Z,43.40
2019-01-24T14:10:49.791Z,49.00
2019-01-24T14:13:16.718Z,51.37
2019-01-24T14:15:43.416Z,56.40
2019-01-24T14:18:10.031Z,58.37
2019-01-24T14:20:37.011Z,56.30
2019-01-24T14:23:03.710Z,57.53
2019-01-24T14:25:30.421Z,57.50
2019-01-24T14:27:57.031Z,35.87
2019-01-24T14:30:23.859Z,52.47
2019-01-24T14:32:51.111Z,56.20
2019-01-24T14:35:18.449Z,59.37
2019-01-24T14:38:36.658Z,62.17
2019-01-24T14:40:54.908Z,59.27
2019-01-24T14:43:21.523Z,59.60
2019-01-24T14:45:48.451Z,59.23
2019-01-24T14:48:15.111Z,57.33
2019-01-24T14:50:41.729Z,46.27
2019-01-24T14:53:08.307Z,47.20
2019-01-24T14:55:35.231Z,44.83
2019-01-24T14:58:01.871Z,63.87
2019-01-24T15:00:34.266Z,61.00
2019-01-24T15:03:01.139Z,53.33
2019-01-24T15:05:28.091Z,64.30
2019-01-24T15:07:54.776Z,66.40
2019-01-24T15:10:21.846Z,50.67
2019-01-24T15:12:48.795Z,59.70
2019-01-24T15:15:15.604Z,60.10
2019-01-24T15:17:42.353Z,55.77
2019-01-24T15:20:09.585Z,59.50
2019-01-24T15:22:36.290Z,62.63
2019-01-24T15:25:03.996Z,75.83
2019-01-24T15:27:30.754Z,63.10
2019-01-24T15:29:57.569Z,56.40
2019-01-24T15:32:24.563Z,56.20
2019-01-24T15:34:51.171Z,62.80
2019-01-24T15:37:17.777Z,45.77
2019-01-24T15:39:44.429Z,63.77
2019-01-24T15:42:11.029Z,61.57
2019-01-24T15:44:37.682Z,62.20
2019-01-24T15:47:04.523Z,54.80
2019-01-24T15:49:31.156Z,59.93
2019-01-24T15:51:57.769Z,59.63
2019-01-24T15:54:24.484Z,54.80
2019-01-24T15:56:51.095Z,59.83
2019-01-24T15:59:17.732Z,55.43
2019-01-24T16:01:44.413Z,48.90
2019-01-24T16:04:11.257Z,42.23
2019-01-24T16:06:37.997Z,57.37
2019-01-24T16:09:06.773Z,66.70
2019-01-24T16:11:33.407Z,68.20
2019-01-24T16:14:00.009Z,54.37
2019-01-24T16:16:26.715Z,61.10
2019-01-24T16:18:53.341Z,57.70
2019-01-24T16:21:19.964Z,63.10
2019-01-24T16:23:46.621Z,57.47
2019-01-24T16:26:13.477Z,59.70
2019-01-24T16:28:40.129Z,58.37
2019-01-24T16:31:07.455Z,59.60
2019-01-24T16:33:34.092Z,59.17
2019-01-24T16:36:00.820Z,70.70
2019-01-24T16:38:27.476Z,56.30
2019-01-24T16:40:54.079Z,69.53
2019-01-24T16:43:20.691Z,79.20
2019-01-24T16:45:47.327Z,64.33
2019-01-24T16:48:13.976Z,70.00
2019-01-24T16:50:40.560Z,66.97
2019-01-24T16:53:08.229Z,51.37
2019-01-24T16:55:34.834Z,64.37
2019-01-24T16:58:01.445Z,69.60
2019-01-24T17:00:33.659Z,72.57
2019-01-24T17:03:00.364Z,69.03
2019-01-24T17:05:26.972Z,65.83
2019-01-24T17:07:53.957Z,59.27
2019-01-24T17:10:20.716Z,75.93
2019-01-24T17:12:47.841Z,78.33
2019-01-24T17:15:16.066Z,73.63
2019-01-24T17:17:44.862Z,73.07
2019-01-24T17:20:15.132Z,70.93
2019-01-24T17:22:41.825Z,70.97
2019-01-24T17:25:09.473Z,70.60
2019-01-24T17:27:36.176Z,73.53
2019-01-24T17:30:06.140Z,67.63
2019-01-24T17:32:32.865Z,70.67
2019-01-24T17:34:59.564Z,72.43
2019-01-24T17:37:26.215Z,75.57
2019-01-24T17:39:53.132Z,82.57
2019-01-24T17:42:19.888Z,69.43
2019-01-24T17:44:46.930Z,60.90
2019-01-24T17:47:13.697Z,66.07
2019-01-24T17:49:40.349Z,64.27
2019-01-24T17:52:07.114Z,87.13
2019-01-24T17:54:34.187Z,81.03
2019-01-24T17:57:00.948Z,72.67
2019-01-24T17:59:27.604Z,74.93
2019-01-24T18:01:54.339Z,67.80
2019-01-24T18:04:21.813Z,74.50
2019-01-24T18:06:48.793Z,69.83
2019-01-24T18:09:15.770Z,70.50
2019-01-24T18:11:42.453Z,67.10
2019-01-24T18:14:09.141Z,68.43
2019-01-24T18:16:36.011Z,73.67
2019-01-24T18:19:03.258Z,70.33
2019-01-24T18:21:30.283Z,62.37
2019-01-24T18:23:56.983Z,62.00
2019-01-24T18:26:23.671Z,57.63
2019-01-24T18:28:50.329Z,69.17
2019-01-24T18:31:17.084Z,65.23
2019-01-24T18:33:43.759Z,63.83
2019-01-24T18:36:10.867Z,62.50
2019-01-24T18:38:38.577Z,70.13
2019-01-24T18:41:08.701Z,63.17
2019-01-24T18:43:33.960Z,60.13
2019-01-24T18:46:01.379Z,56.77
2019-01-24T18:48:28.126Z,58.33
2019-01-24T18:50:55.015Z,59.80
2019-01-24T18:53:21.872Z,65.33
2019-01-24T18:55:48.819Z,60.90
2019-01-24T18:58:15.917Z,69.83
2019-01-24T19:00:44.066Z,65.73
2019-01-24T19:03:11.019Z,73.43
2019-01-24T19:05:38.877Z,56.37
2019-01-24T19:08:06.007Z,68.27
2019-01-24T19:10:32.815Z,61.30
2019-01-24T19:12:59.965Z,63.43
2019-01-24T19:15:26.672Z,63.70
2019-01-24T19:17:53.534Z,60.80
2019-01-24T19:20:20.405Z,64.53
2019-01-24T19:22:47.396Z,67.57
2019-01-24T19:25:14.278Z,64.93
2019-01-24T19:27:41.028Z,66.77
2019-01-24T19:30:13.480Z,52.43
2019-01-24T19:32:40.148Z,72.93
2019-01-24T19:35:07.107Z,57.60
2019-01-24T19:37:33.931Z,68.10
2019-01-24T19:40:00.860Z,61.47
2019-01-24T19:42:27.808Z,61.63
2019-01-24T19:44:54.858Z,67.93
2019-01-24T19:47:21.605Z,60.17
2019-01-24T19:49:48.272Z,59.23
2019-01-24T19:52:14.980Z,72.53
2019-01-24T19:54:42.938Z,61.53
2019-01-24T19:57:09.892Z,54.83
2019-01-24T19:59:36.508Z,61.60
2019-01-24T20:02:03.577Z,73.53
2019-01-24T20:04:30.251Z,63.37
2019-01-24T20:06:57.168Z,73.83
2019-01-24T20:09:23.940Z,69.87
2019-01-24T20:11:50.725Z,61.40
2019-01-24T20:14:17.487Z,57.53
2019-01-24T20:16:44.129Z,60.47
2019-01-24T20:19:10.816Z,53.67
2019-01-24T20:21:37.683Z,46.37
2019-01-24T20:24:04.655Z,46.17
2019-01-24T20:26:31.434Z,50.67
2019-01-24T20:28:58.271Z,47.27
2019-01-24T20:31:25.353Z,48.77
2019-01-24T20:33:52.075Z,55.30
2019-01-24T20:36:18.816Z,52.80
2019-01-24T20:38:45.552Z,55.50
2019-01-24T20:41:12.432Z,54.07
2019-01-24T20:43:40.167Z,47.90
2019-01-24T20:46:08.861Z,48.60
2019-01-24T20:48:39.175Z,45.70
2019-01-24T20:51:07.127Z,51.23
2019-01-24T20:53:36.887Z,48.67
2019-01-24T20:56:04.989Z,52.00
2019-01-24T20:58:32.028Z,47.10
2019-01-24T21:00:58.850Z,44.87
2019-01-24T21:03:26.671Z,46.13
2019-01-24T21:05:53.566Z,54.47
2019-01-24T21:08:20.465Z,63.50
2019-01-24T21:10:47.308Z,43.30
2019-01-24T21:13:14.309Z,50.07
2019-01-24T21:15:42.062Z,52.03
2019-01-24T21:18:09.845Z,46.60
2019-01-24T21:20:38.810Z,48.90
2019-01-24T21:23:13.575Z,52.37
2019-01-24T21:25:40.983Z,51.33
2019-01-24T21:28:09.156Z,49.47
2019-01-24T21:30:37.909Z,50.77
2019-01-24T21:33:06.062Z,30.93
2019-01-24T21:35:32.807Z,52.67
2019-01-24T21:38:01.779Z,30.70
2019-01-24T21:40:29.778Z,46.97
2019-01-24T21:42:56.688Z,45.67
2019-01-24T21:45:26.605Z,53.27
2019-01-24T21:47:53.515Z,52.03
2019-01-24T21:50:21.572Z,56.83
2019-01-24T21:52:48.461Z,42.30
2019-01-24T21:55:16.623Z,55.50
2019-01-24T21:57:43.425Z,54.60
2019-01-24T22:00:12.303Z,46.30
2019-01-24T22:02:39.218Z,50.87
2019-01-24T22:05:06.406Z,54.60
2019-01-24T22:07:33.292Z,48.83
2019-01-24T22:10:00.129Z,51.23
2019-01-24T22:12:26.896Z,49.80
2019-01-24T22:14:54.546Z,54.10
2019-01-24T22:17:21.255Z,57.70
2019-01-24T22:19:47.948Z,48.30
2019-01-24T22:22:14.671Z,51.47
2019-01-24T22:24:41.491Z,60.87
2019-01-24T22:27:08.708Z,42.87
2019-01-24T22:29:35.366Z,46.33
2019-01-24T22:32:02.172Z,57.30
2019-01-24T22:34:28.896Z,52.30
2019-01-24T22:36:55.725Z,55.30
2019-01-24T22:39:22.382Z,56.83
2019-01-24T22:41:49.082Z,58.43
2019-01-24T22:44:16.064Z,55.87
2019-01-24T22:46:42.852Z,45.50
2019-01-24T22:49:10.269Z,52.17
2019-01-24T22:51:37.252Z,61.20
2019-01-24T22:54:04.144Z,64.23
2019-01-24T22:56:35.395Z,57.83
2019-01-24T22:58:59.471Z,62.53
2019-01-24T23:01:46.178Z,61.20
2019-01-24T23:04:18.071Z,58.20
2019-01-24T23:06:44.749Z,61.27
2019-01-24T23:09:11.456Z,52.17
2019-01-24T23:11:38.381Z,63.90
2019-01-24T23:14:05.623Z,57.67
2019-01-24T23:16:32.345Z,56.20
2019-01-24T23:18:59.020Z,59.40
2019-01-24T23:21:25.874Z,63.47
2019-01-24T23:23:53.401Z,63.43
2019-01-24T23:26:20.492Z,62.20
2019-01-24T23:28:47.563Z,63.00
2019-01-24T23:31:14.761Z,65.43
2019-01-24T23:33:41.873Z,65.70
2019-01-24T23:36:08.853Z,51.87
2019-01-24T23:38:36.630Z,56.67
2019-01-24T23:41:04.089Z,60.63
2019-01-24T23:43:31.001Z,61.53
2019-01-24T23:45:57.776Z,56.40
2019-01-24T23:48:24.967Z,50.27
2019-01-24T23:50:51.973Z,64.00
2019-01-24T23:53:18.852Z,62.53
2019-01-24T23:55:46.442Z,56.67
2019-01-24T23:58:13.357Z,60.97
